sensor_id;sensor_type;location;lat;lon;timestamp;pressure;altitude;pressure_sealevel;temperature;humidity
70445;BME280;57902;49.638;11.070;2023-06-24T00:02:24;99159.72;;;14.48;100.00
70445;BME280;57902;49.638;11.070;2023-06-24T00:04:51;99165.84;;;14.45;100.00
70445;BME280;57902;49.638;11.070;2023-06-24T00:07:20;99166.03;;;14.39;100.00
70445;BME280;57902;49.638;11.070;2023-06-24T00:09:49;99158.31;;;14.38;100.00
70445;BME280;57902;49.638;11.070;2023-06-24T00:12:15;99152.34;;;14.34;100.00
70445;BME280;57902;49.638;11.070;2023-06-24T00:14:49;99150.75;;;14.30;100.00
70445;BME280;57902;49.638;11.070;2023-06-24T00:17:16;99151.56;;;14.32;100.00
70445;BME280;57902;49.638;11.070;2023-06-24T00:19:43;99152.59;;;14.26;100.00
70445;BME280;57902;49.638;11.070;2023-06-24T00:22:12;99144.81;;;14.26;100.00
70445;BME280;57902;49.638;11.070;2023-06-24T00:24:41;99144.06;;;14.23;100.00
70445;BME280;57902;49.638;11.070;2023-06-24T00:27:09;99150.19;;;14.20;100.00
70445;BME280;57902;49.638;11.070;2023-06-24T00:29:36;99149.34;;;14.20;100.00
70445;BME280;57902;49.638;11.070;2023-06-24T00:32:02;99147.75;;;14.15;100.00
70445;BME280;57902;49.638;11.070;2023-06-24T00:34:29;99143.50;;;14.13;100.00
70445;BME280;57902;49.638;11.070;2023-06-24T00:36:55;99144.44;;;14.10;100.00
70445;BME280;57902;49.638;11.070;2023-06-24T00:39:22;99147.88;;;14.11;100.00
70445;BME280;57902;49.638;11.070;2023-06-24T00:41:50;99151.38;;;14.10;100.00
70445;BME280;57902;49.638;11.070;2023-06-24T00:44:16;99148.72;;;14.11;100.00
70445;BME280;57902;49.638;11.070;2023-06-24T00:46:43;99154.75;;;14.12;100.00
70445;BME280;57902;49.638;11.070;2023-06-24T00:49:11;99139.25;;;14.10;100.00
70445;BME280;57902;49.638;11.070;2023-06-24T00:51:41;99140.22;;;14.06;100.00
70445;BME280;57902;49.638;11.070;2023-06-24T00:54:17;99140.31;;;14.03;100.00
70445;BME280;57902;49.638;11.070;2023-06-24T00:56:43;99117.97;;;13.99;100.00
70445;BME280;57902;49.638;11.070;2023-06-24T00:59:13;99124.16;;;13.95;100.00
70445;BME280;57902;49.638;11.070;2023-06-24T01:01:41;99117.47;;;13.88;100.00
70445;BME280;57902;49.638;11.070;2023-06-24T01:04:08;99113.25;;;13.83;100.00
70445;BME280;57902;49.638;11.070;2023-06-24T01:06:35;99116.84;;;13.79;100.00
70445;BME280;57902;49.638;11.070;2023-06-24T01:09:03;99117.81;;;13.75;100.00
70445;BME280;57902;49.638;11.070;2023-06-24T01:11:31;99115.34;;;13.71;100.00
70445;BME280;57902;49.638;11.070;2023-06-24T01:13:58;99114.53;;;13.70;100.00
70445;BME280;57902;49.638;11.070;2023-06-24T01:16:43;99114.72;;;13.64;100.00
70445;BME280;57902;49.638;11.070;2023-06-24T01:22:25;99116.66;;;13.56;100.00
70445;BME280;57902;49.638;11.070;2023-06-24T01:27:53;99115.22;;;13.45;100.00
70445;BME280;57902;49.638;11.070;2023-06-24T01:30:41;99117.00;;;13.43;100.00
70445;BME280;57902;49.638;11.070;2023-06-24T01:33:20;99110.03;;;13.45;100.00
70445;BME280;57902;49.638;11.070;2023-06-24T01:35:49;99099.72;;;13.44;100.00
70445;BME280;57902;49.638;11.070;2023-06-24T01:38:24;99107.56;;;13.41;100.00
70445;BME280;57902;49.638;11.070;2023-06-24T01:40:54;99093.91;;;13.36;100.00
70445;BME280;57902;49.638;11.070;2023-06-24T01:43:21;99087.88;;;13.35;100.00
70445;BME280;57902;49.638;11.070;2023-06-24T01:45:51;99088.84;;;13.29;100.00
70445;BME280;57902;49.638;11.070;2023-06-24T01:48:23;99092.38;;;13.27;100.00
70445;BME280;57902;49.638;11.070;2023-06-24T01:51:06;99094.31;;;13.20;100.00
70445;BME280;57902;49.638;11.070;2023-06-24T01:53:41;99094.38;;;13.17;100.00
70445;BME280;57902;49.638;11.070;2023-06-24T01:56:11;99094.44;;;13.16;100.00
70445;BME280;57902;49.638;11.070;2023-06-24T01:58:40;99088.34;;;13.17;100.00
70445;BME280;57902;49.638;11.070;2023-06-24T02:01:09;99086.81;;;13.09;100.00
70445;BME280;57902;49.638;11.070;2023-06-24T02:03:36;99080.78;;;13.09;100.00
70445;BME280;57902;49.638;11.070;2023-06-24T02:06:04;99086.13;;;13.03;100.00
70445;BME280;57902;49.638;11.070;2023-06-24T02:08:33;99081.84;;;13.02;100.00
70445;BME280;57902;49.638;11.070;2023-06-24T02:11:02;99075.75;;;13.04;100.00
70445;BME280;57902;49.638;11.070;2023-06-24T02:13:31;99067.28;;;12.98;100.00
70445;BME280;57902;49.638;11.070;2023-06-24T02:16:00;99078.53;;;12.97;100.00
70445;BME280;57902;49.638;11.070;2023-06-24T02:18:29;99076.00;;;12.95;100.00
70445;BME280;57902;49.638;11.070;2023-06-24T02:20:56;99070.00;;;12.93;100.00
70445;BME280;57902;49.638;11.070;2023-06-24T02:23:23;99078.72;;;12.89;100.00
70445;BME280;57902;49.638;11.070;2023-06-24T02:25:50;99071.78;;;12.91;100.00
70445;BME280;57902;49.638;11.070;2023-06-24T02:28:17;99069.31;;;12.86;100.00
70445;BME280;57902;49.638;11.070;2023-06-24T02:30:45;99071.03;;;12.86;100.00
70445;BME280;57902;49.638;11.070;2023-06-24T02:33:11;99071.97;;;12.85;100.00
70445;BME280;57902;49.638;11.070;2023-06-24T02:35:38;99072.84;;;12.84;100.00
70445;BME280;57902;49.638;11.070;2023-06-24T02:38:04;99072.88;;;12.82;100.00
70445;BME280;57902;49.638;11.070;2023-06-24T02:40:31;99070.25;;;12.84;100.00
70445;BME280;57902;49.638;11.070;2023-06-24T02:43:00;99071.22;;;12.80;100.00
70445;BME280;57902;49.638;11.070;2023-06-24T02:45:27;99074.69;;;12.78;100.00
70445;BME280;57902;49.638;11.070;2023-06-24T02:47:54;99086.94;;;12.72;100.00
70445;BME280;57902;49.638;11.070;2023-06-24T02:50:23;99085.16;;;12.74;100.00
70445;BME280;57902;49.638;11.070;2023-06-24T02:52:51;99082.59;;;12.72;100.00
70445;BME280;57902;49.638;11.070;2023-06-24T02:55:18;99086.16;;;12.68;100.00
70445;BME280;57902;49.638;11.070;2023-06-24T02:57:46;99092.28;;;12.66;100.00
70445;BME280;57902;49.638;11.070;2023-06-24T03:00:13;99091.47;;;12.62;100.00
70445;BME280;57902;49.638;11.070;2023-06-24T03:02:42;99096.69;;;12.60;100.00
70445;BME280;57902;49.638;11.070;2023-06-24T03:05:10;99104.56;;;12.56;100.00
70445;BME280;57902;49.638;11.070;2023-06-24T03:07:40;99102.91;;;12.53;100.00
70445;BME280;57902;49.638;11.070;2023-06-24T03:10:09;99102.94;;;12.52;100.00
70445;BME280;57902;49.638;11.070;2023-06-24T03:12:37;99098.66;;;12.51;100.00
70445;BME280;57902;49.638;11.070;2023-06-24T03:15:04;99115.94;;;12.49;100.00
70445;BME280;57902;49.638;11.070;2023-06-24T03:17:30;99115.88;;;12.52;100.00
70445;BME280;57902;49.638;11.070;2023-06-24T03:19:57;99116.78;;;12.49;100.00
70445;BME280;57902;49.638;11.070;2023-06-24T03:22:23;99124.50;;;12.51;100.00
70445;BME280;57902;49.638;11.070;2023-06-24T03:24:50;99121.97;;;12.49;100.00
70445;BME280;57902;49.638;11.070;2023-06-24T03:27:19;99120.25;;;12.50;100.00
70445;BME280;57902;49.638;11.070;2023-06-24T03:29:45;99108.97;;;12.52;100.00
70445;BME280;57902;49.638;11.070;2023-06-24T03:32:12;99106.41;;;12.51;100.00
70445;BME280;57902;49.638;11.070;2023-06-24T03:34:38;99114.13;;;12.54;100.00
70445;BME280;57902;49.638;11.070;2023-06-24T03:37:05;99115.72;;;12.58;100.00
70445;BME280;57902;49.638;11.070;2023-06-24T03:39:31;99110.50;;;12.59;100.00
70445;BME280;57902;49.638;11.070;2023-06-24T03:41:58;99114.81;;;12.60;100.00
70445;BME280;57902;49.638;11.070;2023-06-24T03:44:24;99117.34;;;12.62;100.00
70445;BME280;57902;49.638;11.070;2023-06-24T03:46:51;99125.94;;;12.64;100.00
70445;BME280;57902;49.638;11.070;2023-06-24T03:49:18;99133.50;;;12.72;100.00
70445;BME280;57902;49.638;11.070;2023-06-24T03:51:44;99142.78;;;12.81;100.00
70445;BME280;57902;49.638;11.070;2023-06-24T03:54:11;99144.41;;;12.85;100.00
70445;BME280;57902;49.638;11.070;2023-06-24T03:56:37;99142.56;;;12.88;100.00
70445;BME280;57902;49.638;11.070;2023-06-24T03:59:04;99154.53;;;12.94;100.00
70445;BME280;57902;49.638;11.070;2023-06-24T04:01:32;99156.91;;;13.02;100.00
70445;BME280;57902;49.638;11.070;2023-06-24T04:03:59;99159.28;;;13.09;100.00
70445;BME280;57902;49.638;11.070;2023-06-24T04:06:25;99156.41;;;13.22;100.00
70445;BME280;57902;49.638;11.070;2023-06-24T04:08:52;99162.16;;;13.33;100.00
70445;BME280;57902;49.638;11.070;2023-06-24T04:11:18;99167.19;;;13.71;100.00
70445;BME280;57902;49.638;11.070;2023-06-24T04:13:45;99172.75;;;14.46;100.00
70445;BME280;57902;49.638;11.070;2023-06-24T04:16:12;99168.22;;;15.32;99.35
70445;BME280;57902;49.638;11.070;2023-06-24T04:18:39;99176.66;;;16.11;96.48
70445;BME280;57902;49.638;11.070;2023-06-24T04:21:06;99177.13;;;16.89;89.22
70445;BME280;57902;49.638;11.070;2023-06-24T04:23:33;99176.66;;;17.41;84.87
70445;BME280;57902;49.638;11.070;2023-06-24T04:26:00;99175.69;;;17.83;81.46
70445;BME280;57902;49.638;11.070;2023-06-24T04:28:26;99176.53;;;18.41;80.61
70445;BME280;57902;49.638;11.070;2023-06-24T04:30:54;99181.53;;;18.82;77.93
70445;BME280;57902;49.638;11.070;2023-06-24T04:33:20;99185.09;;;19.16;75.44
70445;BME280;57902;49.638;11.070;2023-06-24T04:35:48;99187.69;;;19.33;73.60
70445;BME280;57902;49.638;11.070;2023-06-24T04:38:14;99193.69;;;19.53;72.83
70445;BME280;57902;49.638;11.070;2023-06-24T04:40:45;99192.63;;;19.73;72.41
70445;BME280;57902;49.638;11.070;2023-06-24T04:43:11;99203.53;;;19.99;71.15
70445;BME280;57902;49.638;11.070;2023-06-24T04:45:38;99200.66;;;20.67;69.34
70445;BME280;57902;49.638;11.070;2023-06-24T04:48:05;99194.09;;;20.90;66.85
70445;BME280;57902;49.638;11.070;2023-06-24T04:50:31;99196.25;;;21.59;63.90
70445;BME280;57902;49.638;11.070;2023-06-24T04:52:58;99199.25;;;21.81;63.82
70445;BME280;57902;49.638;11.070;2023-06-24T04:55:25;99201.13;;;21.94;62.84
70445;BME280;57902;49.638;11.070;2023-06-24T04:57:51;99203.47;;;22.54;59.92
70445;BME280;57902;49.638;11.070;2023-06-24T05:00:18;99205.38;;;22.93;59.08
70445;BME280;57902;49.638;11.070;2023-06-24T05:02:44;99207.19;;;23.05;57.97
70445;BME280;57902;49.638;11.070;2023-06-24T05:05:11;99214.13;;;23.06;59.00
70445;BME280;57902;49.638;11.070;2023-06-24T05:07:38;99207.81;;;23.62;56.58
70445;BME280;57902;49.638;11.070;2023-06-24T05:10:06;99214.94;;;23.85;55.34
70445;BME280;57902;49.638;11.070;2023-06-24T05:12:32;99215.19;;;24.08;56.17
70445;BME280;57902;49.638;11.070;2023-06-24T05:14:59;99220.81;;;24.27;54.36
70445;BME280;57902;49.638;11.070;2023-06-24T05:17:25;99224.25;;;24.41;53.21
70445;BME280;57902;49.638;11.070;2023-06-24T05:19:52;99221.56;;;24.67;52.19
70445;BME280;57902;49.638;11.070;2023-06-24T05:22:18;99221.34;;;25.05;51.95
70445;BME280;57902;49.638;11.070;2023-06-24T05:24:45;99215.38;;;25.14;51.27
70445;BME280;57902;49.638;11.070;2023-06-24T05:27:11;99213.69;;;25.49;50.95
70445;BME280;57902;49.638;11.070;2023-06-24T05:29:38;99211.28;;;26.25;49.98
70445;BME280;57902;49.638;11.070;2023-06-24T05:32:05;99214.22;;;26.11;49.16
70445;BME280;57902;49.638;11.070;2023-06-24T05:34:31;99215.38;;;25.95;48.77
70445;BME280;57902;49.638;11.070;2023-06-24T05:36:59;99217.06;;;26.19;50.06
70445;BME280;57902;49.638;11.070;2023-06-24T05:39:25;99218.25;;;26.26;49.14
70445;BME280;57902;49.638;11.070;2023-06-24T05:41:52;99221.41;;;25.86;50.51
70445;BME280;57902;49.638;11.070;2023-06-24T05:44:18;99228.22;;;26.34;50.94
70445;BME280;57902;49.638;11.070;2023-06-24T05:46:45;99226.19;;;26.37;50.79
70445;BME280;57902;49.638;11.070;2023-06-24T05:49:12;99221.03;;;26.25;49.13
70445;BME280;57902;49.638;11.070;2023-06-24T05:51:38;99223.66;;;26.36;49.67
70445;BME280;57902;49.638;11.070;2023-06-24T05:54:05;99227.28;;;27.11;46.62
70445;BME280;57902;49.638;11.070;2023-06-24T05:56:32;99217.72;;;27.62;43.92
70445;BME280;57902;49.638;11.070;2023-06-24T05:58:58;99228.69;;;28.09;43.01
70445;BME280;57902;49.638;11.070;2023-06-24T06:01:25;99226.44;;;27.32;45.52
70445;BME280;57902;49.638;11.070;2023-06-24T06:03:51;99223.66;;;27.75;43.26
70445;BME280;57902;49.638;11.070;2023-06-24T06:06:18;99226.69;;;27.29;45.33
70445;BME280;57902;49.638;11.070;2023-06-24T06:08:45;99229.75;;;27.24;46.85
70445;BME280;57902;49.638;11.070;2023-06-24T06:11:11;99227.34;;;27.21;46.99
70445;BME280;57902;49.638;11.070;2023-06-24T06:13:38;99216.06;;;26.86;46.99
70445;BME280;57902;49.638;11.070;2023-06-24T06:16:04;99225.28;;;28.48;43.17
70445;BME280;57902;49.638;11.070;2023-06-24T06:18:31;99213.53;;;27.59;44.64
70445;BME280;57902;49.638;11.070;2023-06-24T06:20:57;99215.09;;;27.62;46.15
70445;BME280;57902;49.638;11.070;2023-06-24T06:23:24;99222.84;;;27.33;46.24
70445;BME280;57902;49.638;11.070;2023-06-24T06:25:52;99228.25;;;27.31;46.49
70445;BME280;57902;49.638;11.070;2023-06-24T06:28:18;99218.22;;;26.93;46.17
70445;BME280;57902;49.638;11.070;2023-06-24T06:30:45;99218.25;;;27.35;46.73
70445;BME280;57902;49.638;11.070;2023-06-24T06:33:11;99218.97;;;27.89;46.36
70445;BME280;57902;49.638;11.070;2023-06-24T06:35:38;99217.00;;;28.12;43.14
70445;BME280;57902;49.638;11.070;2023-06-24T06:38:05;99209.75;;;29.61;40.41
70445;BME280;57902;49.638;11.070;2023-06-24T06:40:31;99215.63;;;30.02;38.38
70445;BME280;57902;49.638;11.070;2023-06-24T06:42:58;99213.91;;;28.87;42.62
70445;BME280;57902;49.638;11.070;2023-06-24T06:45:25;99208.38;;;29.57;39.62
70445;BME280;57902;49.638;11.070;2023-06-24T06:47:51;99217.09;;;28.61;40.64
70445;BME280;57902;49.638;11.070;2023-06-24T06:50:18;99208.06;;;29.60;39.59
70445;BME280;57902;49.638;11.070;2023-06-24T06:52:44;99217.81;;;29.12;39.78
70445;BME280;57902;49.638;11.070;2023-06-24T06:55:11;99210.81;;;29.30;39.67
70445;BME280;57902;49.638;11.070;2023-06-24T06:57:37;99207.75;;;28.96;40.10
70445;BME280;57902;49.638;11.070;2023-06-24T07:00:04;99211.22;;;29.45;39.24
70445;BME280;57902;49.638;11.070;2023-06-24T07:02:31;99216.22;;;30.51;37.41
70445;BME280;57902;49.638;11.070;2023-06-24T07:04:57;99205.75;;;31.30;36.15
70445;BME280;57902;49.638;11.070;2023-06-24T07:07:25;99209.53;;;31.01;36.01
70445;BME280;57902;49.638;11.070;2023-06-24T07:09:52;99210.53;;;30.64;38.60
70445;BME280;57902;49.638;11.070;2023-06-24T07:12:18;99203.09;;;31.04;35.94
70445;BME280;57902;49.638;11.070;2023-06-24T07:14:47;99204.00;;;32.00;33.06
70445;BME280;57902;49.638;11.070;2023-06-24T07:17:13;99197.56;;;31.76;34.29
70445;BME280;57902;49.638;11.070;2023-06-24T07:19:40;99196.97;;;30.58;37.47
70445;BME280;57902;49.638;11.070;2023-06-24T07:22:07;99191.50;;;30.13;38.53
70445;BME280;57902;49.638;11.070;2023-06-24T07:24:33;99192.78;;;30.55;36.15
70445;BME280;57902;49.638;11.070;2023-06-24T07:27:00;99190.13;;;31.09;36.20
70445;BME280;57902;49.638;11.070;2023-06-24T07:29:26;99196.47;;;30.72;36.14
70445;BME280;57902;49.638;11.070;2023-06-24T07:31:53;99182.00;;;30.93;35.10
70445;BME280;57902;49.638;11.070;2023-06-24T07:34:19;99190.47;;;32.52;32.40
70445;BME280;57902;49.638;11.070;2023-06-24T07:36:46;99178.75;;;32.28;32.80
70445;BME280;57902;49.638;11.070;2023-06-24T07:39:12;99184.06;;;31.51;34.51
70445;BME280;57902;49.638;11.070;2023-06-24T07:41:39;99192.25;;;31.84;33.32
70445;BME280;57902;49.638;11.070;2023-06-24T07:44:06;99189.91;;;32.24;33.09
70445;BME280;57902;49.638;11.070;2023-06-24T07:46:33;99190.50;;;31.14;35.65
70445;BME280;57902;49.638;11.070;2023-06-24T07:48:59;99180.72;;;31.49;36.00
70445;BME280;57902;49.638;11.070;2023-06-24T07:51:27;99189.22;;;30.46;36.02
70445;BME280;57902;49.638;11.070;2023-06-24T07:53:53;99191.13;;;31.34;34.29
70445;BME280;57902;49.638;11.070;2023-06-24T07:56:19;99186.19;;;31.74;33.01
70445;BME280;57902;49.638;11.070;2023-06-24T07:58:46;99192.94;;;31.95;33.75
70445;BME280;57902;49.638;11.070;2023-06-24T08:01:12;99178.91;;;31.23;35.90
70445;BME280;57902;49.638;11.070;2023-06-24T08:03:39;99179.09;;;30.86;35.73
70445;BME280;57902;49.638;11.070;2023-06-24T08:06:05;99188.09;;;30.21;37.78
70445;BME280;57902;49.638;11.070;2023-06-24T08:08:32;99185.66;;;30.56;36.99
70445;BME280;57902;49.638;11.070;2023-06-24T08:10:58;99187.69;;;31.16;34.54
70445;BME280;57902;49.638;11.070;2023-06-24T08:13:25;99181.56;;;30.79;35.94
70445;BME280;57902;49.638;11.070;2023-06-24T08:15:51;99179.78;;;30.88;36.87
70445;BME280;57902;49.638;11.070;2023-06-24T08:18:18;99188.75;;;31.05;35.75
70445;BME280;57902;49.638;11.070;2023-06-24T08:20:44;99185.72;;;31.52;32.60
70445;BME280;57902;49.638;11.070;2023-06-24T08:23:11;99180.41;;;30.46;37.00
70445;BME280;57902;49.638;11.070;2023-06-24T08:25:37;99179.28;;;30.48;36.20
70445;BME280;57902;49.638;11.070;2023-06-24T08:28:04;99183.06;;;30.64;35.60
70445;BME280;57902;49.638;11.070;2023-06-24T08:30:31;99183.16;;;30.72;34.74
70445;BME280;57902;49.638;11.070;2023-06-24T08:32:59;99182.31;;;30.53;35.70
70445;BME280;57902;49.638;11.070;2023-06-24T08:35:25;99174.94;;;30.19;37.01
70445;BME280;57902;49.638;11.070;2023-06-24T08:37:52;99171.22;;;29.84;36.59
70445;BME280;57902;49.638;11.070;2023-06-24T08:40:19;99176.91;;;28.85;38.22
70445;BME280;57902;49.638;11.070;2023-06-24T08:42:45;99172.53;;;29.23;38.32
70445;BME280;57902;49.638;11.070;2023-06-24T08:45:12;99172.50;;;29.33;37.10
70445;BME280;57902;49.638;11.070;2023-06-24T08:47:40;99169.03;;;29.23;36.93
70445;BME280;57902;49.638;11.070;2023-06-24T08:50:11;99166.13;;;29.06;37.65
70445;BME280;57902;49.638;11.070;2023-06-24T08:52:42;99168.94;;;28.75;37.79
70445;BME280;57902;49.638;11.070;2023-06-24T08:55:13;99172.38;;;27.86;39.94
70445;BME280;57902;49.638;11.070;2023-06-24T08:57:40;99172.41;;;27.96;39.67
70445;BME280;57902;49.638;11.070;2023-06-24T09:00:07;99168.56;;;27.79;38.88
70445;BME280;57902;49.638;11.070;2023-06-24T09:02:37;99168.78;;;27.56;40.78
70445;BME280;57902;49.638;11.070;2023-06-24T09:05:06;99163.25;;;27.38;41.73
70445;BME280;57902;49.638;11.070;2023-06-24T09:07:33;99165.94;;;27.27;41.13
70445;BME280;57902;49.638;11.070;2023-06-24T09:10:00;99171.19;;;26.96;41.65
70445;BME280;57902;49.638;11.070;2023-06-24T09:12:27;99164.63;;;26.47;44.17
70445;BME280;57902;49.638;11.070;2023-06-24T09:14:54;99161.78;;;26.39;38.96
70445;BME280;57902;49.638;11.070;2023-06-24T09:17:21;99162.91;;;26.13;38.65
70445;BME280;57902;49.638;11.070;2023-06-24T09:19:50;99163.50;;;25.94;39.98
70445;BME280;57902;49.638;11.070;2023-06-24T09:22:17;99157.50;;;25.92;40.48
70445;BME280;57902;49.638;11.070;2023-06-24T09:24:46;99161.75;;;26.06;39.47
70445;BME280;57902;49.638;11.070;2023-06-24T09:27:17;99154.66;;;26.07;41.07
70445;BME280;57902;49.638;11.070;2023-06-24T09:29:46;99160.47;;;26.33;40.12
70445;BME280;57902;49.638;11.070;2023-06-24T09:32:13;99153.59;;;26.42;39.71
70445;BME280;57902;49.638;11.070;2023-06-24T09:34:40;99147.19;;;26.44;43.83
70445;BME280;57902;49.638;11.070;2023-06-24T09:37:07;99146.59;;;26.52;39.41
70445;BME280;57902;49.638;11.070;2023-06-24T09:39:38;99142.78;;;26.66;38.99
70445;BME280;57902;49.638;11.070;2023-06-24T09:42:05;99146.06;;;26.69;39.70
70445;BME280;57902;49.638;11.070;2023-06-24T09:44:35;99141.09;;;26.76;39.07
70445;BME280;57902;49.638;11.070;2023-06-24T09:47:02;99145.28;;;26.79;37.98
70445;BME280;57902;49.638;11.070;2023-06-24T09:49:29;99142.00;;;26.86;39.83
70445;BME280;57902;49.638;11.070;2023-06-24T09:51:57;99140.56;;;26.82;39.65
70445;BME280;57902;49.638;11.070;2023-06-24T09:54:26;99141.75;;;27.11;38.65
70445;BME280;57902;49.638;11.070;2023-06-24T09:57:01;99124.97;;;27.00;39.12
70445;BME280;57902;49.638;11.070;2023-06-24T09:59:30;99125.47;;;26.94;38.09
70445;BME280;57902;49.638;11.070;2023-06-24T10:01:56;99116.78;;;27.03;37.80
70445;BME280;57902;49.638;11.070;2023-06-24T10:04:24;99113.88;;;27.06;37.86
70445;BME280;57902;49.638;11.070;2023-06-24T10:06:54;99116.00;;;26.70;39.35
70445;BME280;57902;49.638;11.070;2023-06-24T10:09:21;99107.59;;;26.86;39.26
70445;BME280;57902;49.638;11.070;2023-06-24T10:11:48;99111.34;;;27.05;39.02
70445;BME280;57902;49.638;11.070;2023-06-24T10:14:15;99104.78;;;26.99;39.14
70445;BME280;57902;49.638;11.070;2023-06-24T10:16:42;99103.16;;;27.08;37.55
70445;BME280;57902;49.638;11.070;2023-06-24T10:19:09;99099.53;;;26.88;37.65
70445;BME280;57902;49.638;11.070;2023-06-24T10:21:51;99097.00;;;26.65;38.68
70445;BME280;57902;49.638;11.070;2023-06-24T10:24:36;99096.59;;;26.49;38.66
70445;BME280;57902;49.638;11.070;2023-06-24T10:27:14;99093.19;;;26.58;38.06
70445;BME280;57902;49.638;11.070;2023-06-24T10:29:45;99100.38;;;26.67;37.07
70445;BME280;57902;49.638;11.070;2023-06-24T10:32:13;99089.34;;;26.62;36.88
70445;BME280;57902;49.638;11.070;2023-06-24T10:34:41;99090.44;;;26.81;37.69
70445;BME280;57902;49.638;11.070;2023-06-24T10:37:11;99083.38;;;26.81;38.98
70445;BME280;57902;49.638;11.070;2023-06-24T10:44:50;99069.28;;;27.02;36.89
70445;BME280;57902;49.638;11.070;2023-06-24T10:47:18;99071.59;;;26.95;38.62
70445;BME280;57902;49.638;11.070;2023-06-24T10:49:45;99071.13;;;27.11;36.72
70445;BME280;57902;49.638;11.070;2023-06-24T10:52:12;99066.16;;;27.18;36.43
70445;BME280;57902;49.638;11.070;2023-06-24T10:54:41;99070.94;;;27.03;37.81
70445;BME280;57902;49.638;11.070;2023-06-24T10:57:08;99071.06;;;27.01;37.59
70445;BME280;57902;49.638;11.070;2023-06-24T10:59:35;99057.75;;;27.13;38.13
70445;BME280;57902;49.638;11.070;2023-06-24T11:02:02;99057.50;;;27.16;37.23
70445;BME280;57902;49.638;11.070;2023-06-24T11:04:28;99056.00;;;27.23;38.04
70445;BME280;57902;49.638;11.070;2023-06-24T11:07:02;99054.06;;;27.25;37.06
70445;BME280;57902;49.638;11.070;2023-06-24T11:09:28;99051.72;;;27.32;36.58
70445;BME280;57902;49.638;11.070;2023-06-24T11:11:55;99040.94;;;26.93;37.13
70445;BME280;57902;49.638;11.070;2023-06-24T11:14:22;99041.47;;;26.86;39.45
70445;BME280;57902;49.638;11.070;2023-06-24T11:16:49;99041.34;;;26.67;39.15
70445;BME280;57902;49.638;11.070;2023-06-24T11:19:16;99034.16;;;26.36;38.85
70445;BME280;57902;49.638;11.070;2023-06-24T11:21:42;99033.50;;;26.23;39.82
70445;BME280;57902;49.638;11.070;2023-06-24T11:24:10;99033.91;;;26.40;39.64
70445;BME280;57902;49.638;11.070;2023-06-24T11:26:38;99031.53;;;26.36;38.85
70445;BME280;57902;49.638;11.070;2023-06-24T11:29:11;99024.75;;;26.44;38.54
70445;BME280;57902;49.638;11.070;2023-06-24T11:31:37;99022.97;;;26.65;38.36
70445;BME280;57902;49.638;11.070;2023-06-24T11:34:04;99029.25;;;26.95;36.94
70445;BME280;57902;49.638;11.070;2023-06-24T11:36:32;99021.53;;;27.03;35.39
70445;BME280;57902;49.638;11.070;2023-06-24T11:38:59;99025.66;;;26.96;36.44
70445;BME280;57902;49.638;11.070;2023-06-24T11:41:25;99020.28;;;26.77;36.95
70445;BME280;57902;49.638;11.070;2023-06-24T11:43:53;99019.22;;;26.89;36.15
70445;BME280;57902;49.638;11.070;2023-06-24T11:48:50;99009.31;;;26.91;37.11
70445;BME280;57902;49.638;11.070;2023-06-24T11:51:16;99020.22;;;26.98;36.50
70445;BME280;57902;49.638;11.070;2023-06-24T11:53:44;99011.75;;;27.04;36.18
70445;BME280;57902;49.638;11.070;2023-06-24T11:56:12;99008.84;;;27.07;37.01
70445;BME280;57902;49.638;11.070;2023-06-24T11:58:39;99011.28;;;26.89;36.64
70445;BME280;57902;49.638;11.070;2023-06-24T12:01:09;99012.97;;;26.69;38.23
70445;BME280;57902;49.638;11.070;2023-06-24T12:03:35;99003.00;;;26.73;37.29
70445;BME280;57902;49.638;11.070;2023-06-24T12:06:02;99015.81;;;26.77;38.71
70445;BME280;57902;49.638;11.070;2023-06-24T12:08:28;99011.88;;;26.71;36.64
70445;BME280;57902;49.638;11.070;2023-06-24T12:11:15;99007.81;;;26.67;36.37
70445;BME280;57902;49.638;11.070;2023-06-24T12:13:41;99004.06;;;26.49;39.30
70445;BME280;57902;49.638;11.070;2023-06-24T12:16:08;99006.50;;;26.62;38.25
70445;BME280;57902;49.638;11.070;2023-06-24T12:18:34;98997.97;;;26.69;36.33
70445;BME280;57902;49.638;11.070;2023-06-24T12:21:01;98994.75;;;26.54;36.27
70445;BME280;57902;49.638;11.070;2023-06-24T12:23:27;98996.28;;;26.68;36.21
70445;BME280;57902;49.638;11.070;2023-06-24T12:25:54;98990.13;;;26.89;35.87
70445;BME280;57902;49.638;11.070;2023-06-24T12:28:20;98991.19;;;27.08;36.20
70445;BME280;57902;49.638;11.070;2023-06-24T12:30:47;98983.97;;;27.19;34.82
70445;BME280;57902;49.638;11.070;2023-06-24T12:33:13;98985.16;;;27.36;35.33
70445;BME280;57902;49.638;11.070;2023-06-24T12:35:41;98990.91;;;27.20;34.53
70445;BME280;57902;49.638;11.070;2023-06-24T12:38:08;98991.50;;;27.24;34.83
70445;BME280;57902;49.638;11.070;2023-06-24T12:40:35;98991.50;;;27.24;34.96
70445;BME280;57902;49.638;11.070;2023-06-24T12:43:02;98986.63;;;27.29;34.00
70445;BME280;57902;49.638;11.070;2023-06-24T12:45:29;98978.63;;;27.10;35.17
70445;BME280;57902;49.638;11.070;2023-06-24T12:47:56;98976.66;;;27.02;34.73
70445;BME280;57902;49.638;11.070;2023-06-24T12:50:22;98981.22;;;26.90;36.47
70445;BME280;57902;49.638;11.070;2023-06-24T12:52:49;98978.31;;;26.93;34.07
70445;BME280;57902;49.638;11.070;2023-06-24T12:55:15;98966.38;;;26.78;33.74
70445;BME280;57902;49.638;11.070;2023-06-24T12:57:43;98973.88;;;27.03;33.26
70445;BME280;57902;49.638;11.070;2023-06-24T13:00:10;98965.03;;;27.24;33.57
70445;BME280;57902;49.638;11.070;2023-06-24T13:02:37;98968.44;;;27.36;33.36
70445;BME280;57902;49.638;11.070;2023-06-24T13:05:05;98961.03;;;27.39;33.38